sensor_id;sensor_type;location;lat;lon;timestamp;pressure;altitude;pressure_sealevel;temperature;humidity
49611;BME280;35515;48.766;9.176;2022-08-19T00:01:11;97903.34;;;22.33;60.91
49611;BME280;35515;48.766;9.176;2022-08-19T00:03:37;97896.03;;;22.23;61.27
49611;BME280;35515;48.766;9.176;2022-08-19T00:06:04;97896.31;;;22.21;61.34
49611;BME280;35515;48.766;9.176;2022-08-19T00:08:31;97883.81;;;22.10;61.72
49611;BME280;35515;48.766;9.176;2022-08-19T00:10:57;97889.63;;;22.28;61.20
49611;BME280;35515;48.766;9.176;2022-08-19T00:13:24;97891.84;;;22.26;61.22
49611;BME280;35515;48.766;9.176;2022-08-19T00:15:53;97901.75;;;22.51;60.60
49611;BME280;35515;48.766;9.176;2022-08-19T00:18:19;97903.41;;;22.52;60.35
49611;BME280;35515;48.766;9.176;2022-08-19T00:20:46;97901.69;;;22.56;60.15
49611;BME280;35515;48.766;9.176;2022-08-19T00:23:13;97897.00;;;22.32;60.96
49611;BME280;35515;48.766;9.176;2022-08-19T00:25:40;97897.94;;;22.47;60.50
49611;BME280;35515;48.766;9.176;2022-08-19T00:28:07;97895.81;;;22.19;61.24
49611;BME280;35515;48.766;9.176;2022-08-19T00:30:33;97900.56;;;22.38;60.88
49611;BME280;35515;48.766;9.176;2022-08-19T00:33:01;97894.44;;;22.41;60.60
49611;BME280;35515;48.766;9.176;2022-08-19T00:35:28;97889.41;;;22.24;61.34
49611;BME280;35515;48.766;9.176;2022-08-19T00:37:55;97883.63;;;22.20;61.28
49611;BME280;35515;48.766;9.176;2022-08-19T00:40:22;97884.72;;;22.00;61.95
49611;BME280;35515;48.766;9.176;2022-08-19T00:42:50;97880.19;;;21.91;62.29
49611;BME280;35515;48.766;9.176;2022-08-19T00:45:20;97872.66;;;21.96;62.18
49611;BME280;35515;48.766;9.176;2022-08-19T00:47:47;97867.97;;;21.97;62.16
49611;BME280;35515;48.766;9.176;2022-08-19T00:50:18;97883.03;;;21.80;62.67
49611;BME280;35515;48.766;9.176;2022-08-19T00:52:49;97883.59;;;21.82;62.72
49611;BME280;35515;48.766;9.176;2022-08-19T00:55:20;97881.81;;;21.92;62.43
49611;BME280;35515;48.766;9.176;2022-08-19T00:57:51;97887.63;;;21.90;62.53
49611;BME280;35515;48.766;9.176;2022-08-19T01:00:22;97897.88;;;21.84;62.96
49611;BME280;35515;48.766;9.176;2022-08-19T01:02:49;97893.38;;;21.94;62.62
49611;BME280;35515;48.766;9.176;2022-08-19T01:05:20;97896.53;;;21.82;62.92
49611;BME280;35515;48.766;9.176;2022-08-19T01:07:48;97894.00;;;21.85;62.81
49611;BME280;35515;48.766;9.176;2022-08-19T01:10:20;97890.34;;;21.95;62.61
49611;BME280;35515;48.766;9.176;2022-08-19T01:12:49;97895.06;;;21.90;62.84
49611;BME280;35515;48.766;9.176;2022-08-19T01:15:21;97885.09;;;21.94;62.61
49611;BME280;35515;48.766;9.176;2022-08-19T01:17:50;97886.13;;;21.98;62.50
49611;BME280;35515;48.766;9.176;2022-08-19T01:20:22;97881.81;;;21.92;62.69
49611;BME280;35515;48.766;9.176;2022-08-19T01:22:52;97880.50;;;22.08;62.34
49611;BME280;35515;48.766;9.176;2022-08-19T01:25:22;97882.69;;;22.30;61.45
49611;BME280;35515;48.766;9.176;2022-08-19T01:27:51;97878.97;;;22.21;61.49
49611;BME280;35515;48.766;9.176;2022-08-19T01:30:23;97883.31;;;22.27;61.73
49611;BME280;35515;48.766;9.176;2022-08-19T01:32:51;97881.25;;;22.14;61.99
49611;BME280;35515;48.766;9.176;2022-08-19T01:35:18;97872.47;;;22.31;61.38
49611;BME280;35515;48.766;9.176;2022-08-19T01:37:48;97878.50;;;22.14;62.02
49611;BME280;35515;48.766;9.176;2022-08-19T01:40:17;97872.22;;;22.08;62.22
49611;BME280;35515;48.766;9.176;2022-08-19T01:42:45;97875.72;;;21.95;62.73
49611;BME280;35515;48.766;9.176;2022-08-19T01:45:13;97875.81;;;21.84;63.21
49611;BME280;35515;48.766;9.176;2022-08-19T01:47:40;97873.22;;;21.74;63.55
49611;BME280;35515;48.766;9.176;2022-08-19T01:50:09;97875.31;;;21.82;63.26
49611;BME280;35515;48.766;9.176;2022-08-19T01:52:36;97866.19;;;22.06;62.40
49611;BME280;35515;48.766;9.176;2022-08-19T01:55:05;97867.44;;;21.95;62.87
49611;BME280;35515;48.766;9.176;2022-08-19T01:57:34;97870.22;;;22.14;62.50
49611;BME280;35515;48.766;9.176;2022-08-19T02:00:01;97875.72;;;21.95;63.23
49611;BME280;35515;48.766;9.176;2022-08-19T02:02:30;97883.69;;;21.96;62.80
49611;BME280;35515;48.766;9.176;2022-08-19T02:04:57;97882.16;;;22.09;62.48
49611;BME280;35515;48.766;9.176;2022-08-19T02:07:24;97876.69;;;22.04;62.68
49611;BME280;35515;48.766;9.176;2022-08-19T02:09:50;97881.41;;;22.23;62.11
49611;BME280;35515;48.766;9.176;2022-08-19T02:12:17;97880.88;;;22.20;62.15
49611;BME280;35515;48.766;9.176;2022-08-19T02:14:45;97874.00;;;21.99;62.99
49611;BME280;35515;48.766;9.176;2022-08-19T02:17:11;97873.50;;;21.73;63.93
49611;BME280;35515;48.766;9.176;2022-08-19T02:19:38;97874.44;;;21.63;64.53
49611;BME280;35515;48.766;9.176;2022-08-19T02:22:05;97868.25;;;21.71;64.18
49611;BME280;35515;48.766;9.176;2022-08-19T02:24:32;97878.13;;;21.77;63.92
49611;BME280;35515;48.766;9.176;2022-08-19T02:26:59;97881.94;;;21.57;64.72
49611;BME280;35515;48.766;9.176;2022-08-19T02:29:25;97885.00;;;21.80;64.09
49611;BME280;35515;48.766;9.176;2022-08-19T02:31:54;97886.41;;;21.77;64.17
49611;BME280;35515;48.766;9.176;2022-08-19T02:34:20;97888.19;;;21.87;63.78
49611;BME280;35515;48.766;9.176;2022-08-19T02:36:47;97879.44;;;22.04;63.13
49611;BME280;35515;48.766;9.176;2022-08-19T02:39:13;97885.00;;;21.80;64.09
49611;BME280;35515;48.766;9.176;2022-08-19T02:41:39;97887.63;;;21.66;64.64
49611;BME280;35515;48.766;9.176;2022-08-19T02:44:06;97887.78;;;21.50;65.50
49611;BME280;35515;48.766;9.176;2022-08-19T02:46:33;97880.00;;;21.52;65.34
49611;BME280;35515;48.766;9.176;2022-08-19T02:49:04;97879.44;;;21.61;65.12
49611;BME280;35515;48.766;9.176;2022-08-19T02:51:32;97874.66;;;21.66;64.90
49611;BME280;35515;48.766;9.176;2022-08-19T02:54:01;97874.41;;;21.87;64.43
49611;BME280;35515;48.766;9.176;2022-08-19T02:56:27;97873.38;;;21.59;65.10
49611;BME280;35515;48.766;9.176;2022-08-19T02:58:57;97873.97;;;21.56;65.44
49611;BME280;35515;48.766;9.176;2022-08-19T03:01:25;97873.22;;;21.45;65.85
49611;BME280;35515;48.766;9.176;2022-08-19T03:03:52;97862.94;;;21.56;65.66
49611;BME280;35515;48.766;9.176;2022-08-19T03:06:21;97865.72;;;21.50;65.98
49611;BME280;35515;48.766;9.176;2022-08-19T03:08:48;97868.28;;;21.42;66.69
49611;BME280;35515;48.766;9.176;2022-08-19T03:11:17;97876.91;;;21.35;66.61
49611;BME280;35515;48.766;9.176;2022-08-19T03:13:44;97884.66;;;21.33;66.90
49611;BME280;35515;48.766;9.176;2022-08-19T03:16:11;97883.03;;;21.27;67.26
49611;BME280;35515;48.766;9.176;2022-08-19T03:18:38;97892.91;;;21.33;66.90
49611;BME280;35515;48.766;9.176;2022-08-19T03:21:06;97891.47;;;21.41;67.01
49611;BME280;35515;48.766;9.176;2022-08-19T03:23:35;97894.22;;;21.41;67.09
49611;BME280;35515;48.766;9.176;2022-08-19T03:26:04;97892.66;;;21.29;67.79
49611;BME280;35515;48.766;9.176;2022-08-19T03:28:31;97881.59;;;21.34;67.27
49611;BME280;35515;48.766;9.176;2022-08-19T03:31:02;97873.13;;;21.26;67.32
49611;BME280;35515;48.766;9.176;2022-08-19T03:33:30;97876.47;;;21.23;67.80
49611;BME280;35515;48.766;9.176;2022-08-19T03:36:11;97881.38;;;21.26;67.64
49611;BME280;35515;48.766;9.176;2022-08-19T03:38:41;97882.41;;;21.05;68.45
49611;BME280;35515;48.766;9.176;2022-08-19T03:41:11;97894.84;;;20.98;68.61
49611;BME280;35515;48.766;9.176;2022-08-19T03:43:39;97890.97;;;21.04;68.61
49611;BME280;35515;48.766;9.176;2022-08-19T03:46:16;97890.16;;;21.03;68.80
49611;BME280;35515;48.766;9.176;2022-08-19T03:48:46;97882.69;;;21.04;68.41
49611;BME280;35515;48.766;9.176;2022-08-19T03:51:17;97888.38;;;21.18;68.13
49611;BME280;35515;48.766;9.176;2022-08-19T03:53:46;97886.47;;;21.13;67.99
49611;BME280;35515;48.766;9.176;2022-08-19T03:56:14;97892.41;;;21.26;67.40
49611;BME280;35515;48.766;9.176;2022-08-19T03:58:41;97896.28;;;21.25;67.54
49611;BME280;35515;48.766;9.176;2022-08-19T04:01:08;97890.97;;;21.04;68.21
49611;BME280;35515;48.766;9.176;2022-08-19T04:03:35;97897.91;;;20.96;68.81
49611;BME280;35515;48.766;9.176;2022-08-19T04:06:09;97886.59;;;20.98;68.65
49611;BME280;35515;48.766;9.176;2022-08-19T04:08:38;97886.59;;;20.98;68.49
49611;BME280;35515;48.766;9.176;2022-08-19T04:11:08;97892.94;;;20.98;68.69
49611;BME280;35515;48.766;9.176;2022-08-19T04:13:37;97904.94;;;20.78;69.42
49611;BME280;35515;48.766;9.176;2022-08-19T04:16:05;97899.41;;;20.83;69.13
49611;BME280;35515;48.766;9.176;2022-08-19T04:18:33;97888.09;;;20.85;69.28
49611;BME280;35515;48.766;9.176;2022-08-19T04:20:59;97896.50;;;20.99;68.68
49611;BME280;35515;48.766;9.176;2022-08-19T04:23:26;97892.44;;;20.91;68.74
49611;BME280;35515;48.766;9.176;2022-08-19T04:25:54;97895.19;;;20.91;68.91
49611;BME280;35515;48.766;9.176;2022-08-19T04:30:51;97899.22;;;21.04;68.05
49611;BME280;35515;48.766;9.176;2022-08-19T04:33:22;97897.38;;;20.94;68.29
49611;BME280;35515;48.766;9.176;2022-08-19T04:35:52;97882.38;;;20.76;69.22
49611;BME280;35515;48.766;9.176;2022-08-19T04:38:21;97890.38;;;20.73;69.45
49611;BME280;35515;48.766;9.176;2022-08-19T04:40:50;97893.00;;;20.88;68.83
49611;BME280;35515;48.766;9.176;2022-08-19T04:43:38;97894.34;;;20.96;68.62
49611;BME280;35515;48.766;9.176;2022-08-19T04:46:07;97896.03;;;20.92;68.58
49611;BME280;35515;48.766;9.176;2022-08-19T04:48:34;97896.22;;;21.00;68.22
49611;BME280;35515;48.766;9.176;2022-08-19T04:51:01;97899.47;;;21.08;67.98
49611;BME280;35515;48.766;9.176;2022-08-19T04:53:33;97898.19;;;20.95;68.59
49611;BME280;35515;48.766;9.176;2022-08-19T04:56:04;97900.53;;;20.77;69.23
49611;BME280;35515;48.766;9.176;2022-08-19T04:58:32;97905.94;;;20.93;68.63
49611;BME280;35515;48.766;9.176;2022-08-19T05:01:00;97903.41;;;20.96;68.49
49611;BME280;35515;48.766;9.176;2022-08-19T05:03:27;97898.81;;;20.86;68.78
49611;BME280;35515;48.766;9.176;2022-08-19T05:05:59;97902.56;;;21.01;68.49
49611;BME280;35515;48.766;9.176;2022-08-19T05:08:29;97906.31;;;20.76;69.45
49611;BME280;35515;48.766;9.176;2022-08-19T05:10:56;97913.41;;;20.82;69.30
49611;BME280;35515;48.766;9.176;2022-08-19T05:13:23;97908.22;;;20.80;69.48
49611;BME280;35515;48.766;9.176;2022-08-19T05:15:54;97918.56;;;20.94;69.04
49611;BME280;35515;48.766;9.176;2022-08-19T05:18:22;97931.22;;;20.95;68.98
49611;BME280;35515;48.766;9.176;2022-08-19T05:21:08;97933.22;;;20.89;69.29
49611;BME280;35515;48.766;9.176;2022-08-19T05:23:52;97951.63;;;20.88;69.36
49611;BME280;35515;48.766;9.176;2022-08-19T05:26:18;97956.31;;;20.93;69.22
49611;BME280;35515;48.766;9.176;2022-08-19T05:28:45;97973.06;;;20.97;69.01
49611;BME280;35515;48.766;9.176;2022-08-19T05:31:11;97978.66;;;20.86;69.21
49611;BME280;35515;48.766;9.176;2022-08-19T05:33:39;97982.72;;;20.94;69.09
49611;BME280;35515;48.766;9.176;2022-08-19T05:36:06;97988.53;;;20.93;69.24
49611;BME280;35515;48.766;9.176;2022-08-19T05:38:33;97988.22;;;20.99;68.87
49611;BME280;35515;48.766;9.176;2022-08-19T05:41:00;98009.22;;;20.85;69.47
49611;BME280;35515;48.766;9.176;2022-08-19T05:43:27;97998.75;;;20.82;69.45
49611;BME280;35515;48.766;9.176;2022-08-19T05:46:24;97987.44;;;20.88;69.46
49611;BME280;35515;48.766;9.176;2022-08-19T05:49:13;97995.47;;;20.80;70.03
49611;BME280;35515;48.766;9.176;2022-08-19T05:51:40;97986.94;;;20.81;70.03
49611;BME280;35515;48.766;9.176;2022-08-19T05:54:06;97985.50;;;20.89;69.47
49611;BME280;35515;48.766;9.176;2022-08-19T05:56:34;97989.88;;;20.95;69.32
49611;BME280;35515;48.766;9.176;2022-08-19T05:59:03;97991.06;;;20.84;69.62
49611;BME280;35515;48.766;9.176;2022-08-19T06:01:37;97985.53;;;20.84;69.71
49611;BME280;35515;48.766;9.176;2022-08-19T06:04:04;97988.00;;;20.85;69.53
49611;BME280;35515;48.766;9.176;2022-08-19T06:06:32;97985.28;;;20.80;70.09
49611;BME280;35515;48.766;9.176;2022-08-19T06:08:59;97986.34;;;20.84;69.57
49611;BME280;35515;48.766;9.176;2022-08-19T06:11:32;97998.53;;;20.78;70.05
49611;BME280;35515;48.766;9.176;2022-08-19T06:14:02;97997.69;;;20.78;70.21
49611;BME280;35515;48.766;9.176;2022-08-19T06:16:29;97994.56;;;20.95;69.46
49611;BME280;35515;48.766;9.176;2022-08-19T06:19:00;97990.69;;;20.96;68.80
49611;BME280;35515;48.766;9.176;2022-08-19T06:21:28;97987.41;;;20.94;69.18
49611;BME280;35515;48.766;9.176;2022-08-19T06:23:57;97988.84;;;20.86;69.62
49611;BME280;35515;48.766;9.176;2022-08-19T06:26:24;97987.69;;;20.92;69.55
49611;BME280;35515;48.766;9.176;2022-08-19T06:28:51;97996.88;;;20.77;70.04
49611;BME280;35515;48.766;9.176;2022-08-19T06:31:20;97989.63;;;20.92;69.56
49611;BME280;35515;48.766;9.176;2022-08-19T06:33:47;97994.16;;;20.62;71.04
49611;BME280;35515;48.766;9.176;2022-08-19T06:36:20;98003.50;;;20.71;70.75
49611;BME280;35515;48.766;9.176;2022-08-19T06:38:46;97988.72;;;20.51;72.34
49611;BME280;35515;48.766;9.176;2022-08-19T06:41:14;98003.00;;;20.53;72.31
49611;BME280;35515;48.766;9.176;2022-08-19T06:43:41;97993.03;;;20.68;71.51
49611;BME280;35515;48.766;9.176;2022-08-19T06:46:13;97993.94;;;20.53;72.93
49611;BME280;35515;48.766;9.176;2022-08-19T06:48:40;97995.53;;;20.59;73.74
49611;BME280;35515;48.766;9.176;2022-08-19T06:51:06;97998.13;;;20.40;73.90
49611;BME280;35515;48.766;9.176;2022-08-19T06:53:33;98005.25;;;20.51;73.85
49611;BME280;35515;48.766;9.176;2022-08-19T06:56:00;98000.81;;;20.55;73.73
49611;BME280;35515;48.766;9.176;2022-08-19T06:58:29;98001.88;;;20.65;73.17
49611;BME280;35515;48.766;9.176;2022-08-19T07:00:59;98006.88;;;20.52;73.58
49611;BME280;35515;48.766;9.176;2022-08-19T07:03:29;98002.16;;;20.63;73.65
49611;BME280;35515;48.766;9.176;2022-08-19T07:05:57;98010.22;;;20.44;74.17
49611;BME280;35515;48.766;9.176;2022-08-19T07:08:24;98008.31;;;20.40;74.47
49611;BME280;35515;48.766;9.176;2022-08-19T07:10:52;98012.44;;;20.42;74.35
49611;BME280;35515;48.766;9.176;2022-08-19T07:13:20;98012.63;;;20.56;74.01
49611;BME280;35515;48.766;9.176;2022-08-19T07:15:48;98017.38;;;20.45;74.67
49611;BME280;35515;48.766;9.176;2022-08-19T07:18:16;98011.28;;;20.48;74.22
49611;BME280;35515;48.766;9.176;2022-08-19T07:20:43;98020.13;;;20.45;74.54
49611;BME280;35515;48.766;9.176;2022-08-19T07:23:10;98017.16;;;20.31;74.83
49611;BME280;35515;48.766;9.176;2022-08-19T07:25:37;98023.47;;;20.32;75.26
49611;BME280;35515;48.766;9.176;2022-08-19T07:28:04;98022.06;;;20.40;74.58
49611;BME280;35515;48.766;9.176;2022-08-19T07:30:36;98012.44;;;20.42;74.33
49611;BME280;35515;48.766;9.176;2022-08-19T07:33:04;98017.38;;;20.45;74.29
49611;BME280;35515;48.766;9.176;2022-08-19T07:35:31;98023.94;;;20.49;74.06
49611;BME280;35515;48.766;9.176;2022-08-19T07:37:59;98028.34;;;20.55;73.70
49611;BME280;35515;48.766;9.176;2022-08-19T07:40:27;98022.00;;;20.55;73.87
49611;BME280;35515;48.766;9.176;2022-08-19T07:42:54;98017.81;;;20.73;73.12
49611;BME280;35515;48.766;9.176;2022-08-19T07:45:20;98028.84;;;20.63;72.86
49611;BME280;35515;48.766;9.176;2022-08-19T07:47:47;98017.25;;;20.71;72.83
49611;BME280;35515;48.766;9.176;2022-08-19T07:50:16;98017.25;;;20.66;73.03
49611;BME280;35515;48.766;9.176;2022-08-19T07:52:44;98022.81;;;20.55;73.15
49611;BME280;35515;48.766;9.176;2022-08-19T07:55:11;98030.00;;;20.51;73.46
49611;BME280;35515;48.766;9.176;2022-08-19T07:57:38;98026.22;;;20.32;74.39
49611;BME280;35515;48.766;9.176;2022-08-19T08:00:06;98031.72;;;20.37;74.12
49611;BME280;35515;48.766;9.176;2022-08-19T08:02:33;98029.16;;;20.51;73.66
49611;BME280;35515;48.766;9.176;2022-08-19T08:04:59;98023.13;;;20.49;73.69
49611;BME280;35515;48.766;9.176;2022-08-19T08:07:50;98024.47;;;20.57;73.25
49611;BME280;35515;48.766;9.176;2022-08-19T08:10:34;98021.66;;;20.72;72.55
49611;BME280;35515;48.766;9.176;2022-08-19T08:13:01;98026.97;;;20.53;73.16
49611;BME280;35515;48.766;9.176;2022-08-19T08:15:30;98036.50;;;20.66;72.81
49611;BME280;35515;48.766;9.176;2022-08-19T08:17:56;98032.38;;;20.79;73.97
49611;BME280;35515;48.766;9.176;2022-08-19T08:20:24;98042.56;;;20.78;72.81
49611;BME280;35515;48.766;9.176;2022-08-19T08:22:52;98043.69;;;20.67;72.98
49611;BME280;35515;48.766;9.176;2022-08-19T08:25:36;98036.91;;;20.38;74.46
49611;BME280;35515;48.766;9.176;2022-08-19T08:28:04;98041.06;;;20.36;75.23
49611;BME280;35515;48.766;9.176;2022-08-19T08:30:31;98038.75;;;20.59;74.99
49611;BME280;35515;48.766;9.176;2022-08-19T08:33:01;98048.72;;;20.49;75.68
49611;BME280;35515;48.766;9.176;2022-08-19T08:35:27;98041.81;;;20.57;74.72
49611;BME280;35515;48.766;9.176;2022-08-19T08:37:55;98037.72;;;20.44;74.91
49611;BME280;35515;48.766;9.176;2022-08-19T08:40:27;98041.00;;;20.57;74.48
49611;BME280;35515;48.766;9.176;2022-08-19T08:42:57;98041.81;;;20.52;74.49
49611;BME280;35515;48.766;9.176;2022-08-19T08:45:26;98040.47;;;20.39;75.61
49611;BME280;35515;48.766;9.176;2022-08-19T08:47:57;98038.19;;;20.62;74.75
49611;BME280;35515;48.766;9.176;2022-08-19T08:50:31;98039.34;;;20.50;75.08
49611;BME280;35515;48.766;9.176;2022-08-19T08:53:03;98037.41;;;20.51;75.98
49611;BME280;35515;48.766;9.176;2022-08-19T08:55:31;98045.03;;;20.80;74.55
49611;BME280;35515;48.766;9.176;2022-08-19T08:58:01;98037.06;;;20.78;74.47
49611;BME280;35515;48.766;9.176;2022-08-19T09:00:30;98044.25;;;20.69;75.00
49611;BME280;35515;48.766;9.176;2022-08-19T09:02:58;98049.25;;;20.51;75.82
49611;BME280;35515;48.766;9.176;2022-08-19T09:05:30;98046.44;;;20.62;75.28
49611;BME280;35515;48.766;9.176;2022-08-19T09:08:04;98045.97;;;20.49;75.80
49611;BME280;35515;48.766;9.176;2022-08-19T09:10:37;98047.91;;;20.49;76.28
49611;BME280;35515;48.766;9.176;2022-08-19T09:13:10;98045.16;;;20.49;76.90
49611;BME280;35515;48.766;9.176;2022-08-19T09:15:43;98043.47;;;20.58;76.64
49611;BME280;35515;48.766;9.176;2022-08-19T09:18:11;98045.91;;;20.60;77.08
49611;BME280;35515;48.766;9.176;2022-08-19T09:20:38;98052.22;;;20.70;76.15
49611;BME280;35515;48.766;9.176;2022-08-19T09:23:06;98051.63;;;20.84;75.26
49611;BME280;35515;48.766;9.176;2022-08-19T09:25:33;98048.00;;;20.88;74.87
49611;BME280;35515;48.766;9.176;2022-08-19T09:28:00;98048.00;;;20.88;75.03
49611;BME280;35515;48.766;9.176;2022-08-19T09:30:30;98047.97;;;20.94;74.62
49611;BME280;35515;48.766;9.176;2022-08-19T09:32:57;98050.22;;;20.86;75.19
49611;BME280;35515;48.766;9.176;2022-08-19T09:35:26;98046.44;;;21.22;73.47
49611;BME280;35515;48.766;9.176;2022-08-19T09:37:54;98045.97;;;21.04;74.30
49611;BME280;35515;48.766;9.176;2022-08-19T09:40:24;98043.47;;;21.13;74.13
49611;BME280;35515;48.766;9.176;2022-08-19T09:42:51;98048.50;;;21.01;74.98
49611;BME280;35515;48.766;9.176;2022-08-19T09:45:20;98050.97;;;21.02;74.83
49611;BME280;35515;48.766;9.176;2022-08-19T09:47:47;98041.88;;;21.02;74.81
49611;BME280;35515;48.766;9.176;2022-08-19T09:50:14;98049.88;;;21.03;74.46
49611;BME280;35515;48.766;9.176;2022-08-19T09:52:40;98045.16;;;21.04;74.07
49611;BME280;35515;48.766;9.176;2022-08-19T09:55:10;98048.88;;;21.29;73.16
49611;BME280;35515;48.766;9.176;2022-08-19T09:57:38;98066.91;;;21.05;74.05
49611;BME280;35515;48.766;9.176;2022-08-19T10:00:07;98065.97;;;21.20;73.31
49611;BME280;35515;48.766;9.176;2022-08-19T10:02:34;98056.69;;;21.11;73.92
49611;BME280;35515;48.766;9.176;2022-08-19T10:05:01;98056.88;;;21.25;73.35
49611;BME280;35515;48.766;9.176;2022-08-19T10:07:45;98056.09;;;21.19;73.34
49611;BME280;35515;48.766;9.176;2022-08-19T10:10:12;98040.00;;;21.37;72.82
49611;BME280;35515;48.766;9.176;2022-08-19T10:12:40;98062.56;;;21.39;72.34
49611;BME280;35515;48.766;9.176;2022-08-19T10:15:08;98056.22;;;21.38;72.59
49611;BME280;35515;48.766;9.176;2022-08-19T10:17:35;98049.38;;;21.31;72.37
49611;BME280;35515;48.766;9.176;2022-08-19T10:20:02;98046.91;;;21.34;72.19
49611;BME280;35515;48.766;9.176;2022-08-19T10:22:30;98045.38;;;21.18;73.26
49611;BME280;35515;48.766;9.176;2022-08-19T10:24:56;98045.28;;;21.28;72.87
49611;BME280;35515;48.766;9.176;2022-08-19T10:27:23;98052.06;;;21.41;72.50
49611;BME280;35515;48.766;9.176;2022-08-19T10:29:51;98048.75;;;21.44;72.25
49611;BME280;35515;48.766;9.176;2022-08-19T10:32:18;98056.22;;;21.38;72.37
49611;BME280;35515;48.766;9.176;2022-08-19T10:34:47;98045.38;;;21.52;71.88
49611;BME280;35515;48.766;9.176;2022-08-19T10:37:15;98036.53;;;21.61;71.54
49611;BME280;35515;48.766;9.176;2022-08-19T10:39:42;98032.13;;;21.60;72.12
49611;BME280;35515;48.766;9.176;2022-08-19T10:42:11;98037.94;;;21.58;72.35
49611;BME280;35515;48.766;9.176;2022-08-19T10:44:39;98035.47;;;21.57;72.56
49611;BME280;35515;48.766;9.176;2022-08-19T10:47:07;98030.75;;;21.57;72.68
49611;BME280;35515;48.766;9.176;2022-08-19T10:49:34;98035.94;;;21.64;72.53
49611;BME280;35515;48.766;9.176;2022-08-19T10:52:21;98032.59;;;21.67;71.96
49611;BME280;35515;48.766;9.176;2022-08-19T10:54:59;98035.28;;;21.77;70.72
49611;BME280;35515;48.766;9.176;2022-08-19T10:57:43;98043.59;;;21.72;70.81
49611;BME280;35515;48.766;9.176;2022-08-19T11:00:11;98034.22;;;21.73;70.37
49611;BME280;35515;48.766;9.176;2022-08-19T11:02:39;98034.78;;;21.70;70.66
49611;BME280;35515;48.766;9.176;2022-08-19T11:05:07;98035.94;;;21.64;70.73
49611;BME280;35515;48.766;9.176;2022-08-19T11:07:36;98033.97;;;21.69;69.84
49611;BME280;35515;48.766;9.176;2022-08-19T11:10:03;98033.63;;;21.76;68.99
49611;BME280;35515;48.766;9.176;2022-08-19T11:12:30;98030.38;;;21.69;69.05
49611;BME280;35515;48.766;9.176;2022-08-19T11:14:58;98029.28;;;21.70;68.90
49611;BME280;35515;48.766;9.176;2022-08-19T11:17:24;98038.16;;;21.62;69.21
49611;BME280;35515;48.766;9.176;2022-08-19T11:19:52;98029.22;;;21.75;68.50
49611;BME280;35515;48.766;9.176;2022-08-19T11:22:19;98032.47;;;21.82;68.10
49611;BME280;35515;48.766;9.176;2022-08-19T11:24:46;98030.22;;;21.84;68.19
49611;BME280;35515;48.766;9.176;2022-08-19T11:27:13;98030.31;;;21.79;68.44
49611;BME280;35515;48.766;9.176;2022-08-19T11:29:40;98026.69;;;21.79;68.39
49611;BME280;35515;48.766;9.176;2022-08-19T11:32:09;98031.25;;;21.94;67.61
49611;BME280;35515;48.766;9.176;2022-08-19T11:34:36;98025.56;;;21.85;68.13
49611;BME280;35515;48.766;9.176;2022-08-19T11:37:05;98028.81;;;21.87;68.41
49611;BME280;35515;48.766;9.176;2022-08-19T11:39:35;98020.16;;;21.99;67.74
49611;BME280;35515;48.766;9.176;2022-08-19T11:42:03;98020.47;;;22.21;66.13
49611;BME280;35515;48.766;9.176;2022-08-19T11:44:50;98022.41;;;22.21;65.97
49611;BME280;35515;48.766;9.176;2022-08-19T11:47:17;98025.94;;;22.27;65.54
49611;BME280;35515;48.766;9.176;2022-08-19T11:49:45;98030.50;;;22.12;66.30
49611;BME280;35515;48.766;9.176;2022-08-19T11:52:13;98026.63;;;22.13;66.18
49611;BME280;35515;48.766;9.176;2022-08-19T11:54:40;98030.41;;;22.23;65.15
49611;BME280;35515;48.766;9.176;2022-08-19T11:57:06;98021.38;;;22.17;65.48
49611;BME280;35515;48.766;9.176;2022-08-19T11:59:33;98025.06;;;22.31;64.52
49611;BME280;35515;48.766;9.176;2022-08-19T12:01:59;98015.75;;;22.27;64.65
49611;BME280;35515;48.766;9.176;2022-08-19T12:04:26;98014.22;;;22.40;64.01
49611;BME280;35515;48.766;9.176;2022-08-19T12:06:53;98010.88;;;22.43;63.64
49611;BME280;35515;48.766;9.176;2022-08-19T12:09:21;98012.06;;;22.37;64.01
49611;BME280;35515;48.766;9.176;2022-08-19T12:11:48;98022.56;;;22.35;64.20
49611;BME280;35515;48.766;9.176;2022-08-19T12:14:16;98022.56;;;22.30;64.39
49611;BME280;35515;48.766;9.176;2022-08-19T12:16:44;98019.00;;;22.29;64.46
49611;BME280;35515;48.766;9.176;2022-08-19T12:19:11;98016.25;;;22.29;64.64
49611;BME280;35515;48.766;9.176;2022-08-19T12:21:38;98017.59;;;22.32;64.36
49611;BME280;35515;48.766;9.176;2022-08-19T12:24:05;98012.00;;;22.42;63.96
49611;BME280;35515;48.766;9.176;2022-08-19T12:26:34;98010.88;;;22.43;63.52
49611;BME280;35515;48.766;9.176;2022-08-19T12:29:01;98011.75;;;22.38;63.71
49611;BME280;35515;48.766;9.176;2022-08-19T12:31:29;98012.06;;;22.37;64.06
49611;BME280;35515;48.766;9.176;2022-08-19T12:33:56;98016.78;;;22.31;64.29
49611;BME280;35515;48.766;9.176;2022-08-19T12:36:23;98008.78;;;22.30;64.70
49611;BME280;35515;48.766;9.176;2022-08-19T12:38:50;98015.44;;;22.29;65.65
49611;BME280;35515;48.766;9.176;2022-08-19T12:41:18;98013.78;;;22.28;66.38
49611;BME280;35515;48.766;9.176;2022-08-19T12:43:49;98019.34;;;22.23;67.65
49611;BME280;35515;48.766;9.176;2022-08-19T12:46:16;98015.25;;;22.20;67.95
49611;BME280;35515;48.766;9.176;2022-08-19T12:48:43;98015.31;;;22.15;67.83
49611;BME280;35515;48.766;9.176;2022-08-19T12:51:13;98012.78;;;22.18;68.53
49611;BME280;35515;48.766;9.176;2022-08-19T12:53:41;98008.31;;;22.23;68.85
49611;BME280;35515;48.766;9.176;2022-08-19T12:56:10;98004.91;;;22.31;68.21
49611;BME280;35515;48.766;9.176;2022-08-19T12:58:39;98014.22;;;22.40;67.82
49611;BME280;35515;48.766;9.176;2022-08-19T13:01:09;98007.66;;;22.36;67.93
49611;BME280;35515;48.766;9.176;2022-08-19T13:03:36;98014.50;;;22.38;67.60
49611;BME280;35515;48.766;9.176;2022-08-19T13:06:03;98011.75;;;22.38;67.60
49611;BME280;35515;48.766;9.176;2022-08-19T13:08:30;98022.50;;;22.40;68.82
49611;BME280;35515;48.766;9.176;2022-08-19T13:10:57;98019.22;;;22.38;69.52